Time;durP1;ratioP1;P1;durP2;ratioP2;P2;SDS_P1;SDS_P2;PMS_P1;PMS_P2;Temp;Humidity;BMP_temperature;BMP_pressure;BME280_temperature;BME280_humidity;BME280_pressure;Samples;Min_cycle;Max_cycle;Signal;HPM_P1;HPM_P2
2023/09/30 00:00:44;;;;;;;16.77;8.17;;;;;;;10.32;100.00;102397.88;5003671;28;20097;-95
2023/09/30 00:03:10;;;;;;;17.35;9.63;;;;;;;10.35;100.00;102400.13;5020514;28;20032;-94
2023/09/30 00:05:36;;;;;;;24.90;12.25;;;;;;;10.40;100.00;102389.63;5011552;28;20189;-94
2023/09/30 00:08:01;;;;;;;22.17;13.23;;;;;;;10.47;100.00;102399.44;4995134;28;20592;-94
2023/09/30 00:10:27;;;;;;;23.83;15.70;;;;;;;10.49;100.00;102408.09;4996932;28;20018;-95
2023/09/30 00:12:52;;;;;;;33.55;17.42;;;;;;;10.49;100.00;102400.91;5009231;28;20049;-93
2023/09/30 00:15:17;;;;;;;34.93;22.60;;;;;;;10.48;100.00;102406.47;5035636;28;20065;-95
2023/09/30 00:17:43;;;;;;;37.90;22.00;;;;;;;10.48;100.00;102403.78;5034970;28;20041;-95
2023/09/30 00:20:09;;;;;;;35.33;23.17;;;;;;;10.47;100.00;102399.44;5015225;28;20065;-95
2023/09/30 00:22:34;;;;;;;38.60;21.33;;;;;;;10.40;100.00;102405.72;5013162;28;20385;-93
2023/09/30 00:25:00;;;;;;;37.67;20.90;;;;;;;10.45;100.00;102402.38;5001746;28;20027;-94
2023/09/30 00:27:25;;;;;;;33.65;19.77;;;;;;;10.45;100.00;102408.53;5011893;28;20032;-94
2023/09/30 00:29:51;;;;;;;25.53;15.43;;;;;;;10.47;100.00;102408.34;5012447;28;20033;-93
2023/09/30 00:32:16;;;;;;;25.20;14.73;;;;;;;10.44;100.00;102406.09;5013282;28;20022;-94
2023/09/30 00:34:42;;;;;;;22.48;13.63;;;;;;;10.50;100.00;102404.38;5012629;28;20037;-92
2023/09/30 00:37:08;;;;;;;24.50;12.83;;;;;;;10.48;100.00;102391.22;5012629;28;20026;-93
2023/09/30 00:39:33;;;;;;;27.40;12.57;;;;;;;10.45;100.00;102397.00;5011007;28;20048;-93
2023/09/30 00:41:59;;;;;;;21.87;11.47;;;;;;;10.42;100.00;102419.69;5003336;28;20110;-94
2023/09/30 00:44:27;;;;;;;19.50;10.45;;;;;;;10.42;100.00;102427.72;5010239;28;20050;-94
2023/09/30 00:46:57;;;;;;;18.63;11.37;;;;;;;10.38;100.00;102421.19;5010347;28;20041;-94
2023/09/30 00:49:24;;;;;;;18.02;9.75;;;;;;;10.42;100.00;102435.75;5011903;28;20029;-93
2023/09/30 00:51:50;;;;;;;18.38;9.90;;;;;;;10.38;100.00;102418.50;5012552;28;20477;-93
2023/09/30 00:54:17;;;;;;;22.73;9.57;;;;;;;10.39;100.00;102419.31;4999652;28;20029;-93
2023/09/30 00:56:46;;;;;;;17.75;9.32;;;;;;;10.31;100.00;102401.59;5004193;28;20025;-93
2023/09/30 00:59:13;;;;;;;19.92;9.00;;;;;;;10.29;100.00;102406.34;5011735;28;20042;-94
2023/09/30 01:01:39;;;;;;;18.80;8.85;;;;;;;10.27;100.00;102413.78;5007782;28;20405;-94
2023/09/30 01:04:05;;;;;;;18.07;9.20;;;;;;;10.29;100.00;102417.06;5006497;28;20025;-94
2023/09/30 01:06:31;;;;;;;17.52;9.23;;;;;;;10.33;100.00;102420.97;5011610;28;20709;-94
2023/09/30 01:08:57;;;;;;;17.52;8.73;;;;;;;10.29;100.00;102428.63;5013127;28;20030;-93
2023/09/30 01:11:22;;;;;;;16.47;9.37;;;;;;;10.22;100.00;102419.81;5005419;28;20018;-93
2023/09/30 01:13:49;;;;;;;17.10;9.18;;;;;;;10.20;100.00;102421.88;5011188;28;20033;-93
2023/09/30 01:16:14;;;;;;;17.63;8.10;;;;;;;10.14;100.00;102423.56;5009727;28;20030;-92
2023/09/30 01:18:42;;;;;;;15.93;7.78;;;;;;;10.10;100.00;102427.69;5012980;28;20029;-93
2023/09/30 01:21:08;;;;;;;17.67;8.63;;;;;;;10.03;100.00;102426.09;5010750;28;20026;-93
2023/09/30 01:23:37;;;;;;;15.18;8.27;;;;;;;9.95;100.00;102430.66;5011672;28;20029;-94
2023/09/30 01:26:04;;;;;;;18.80;8.77;;;;;;;9.95;100.00;102443.25;5020673;28;20030;-94
2023/09/30 01:28:30;;;;;;;17.53;8.10;;;;;;;9.86;100.00;102453.38;5018610;28;20289;-94
2023/09/30 01:30:56;;;;;;;18.63;8.23;;;;;;;9.84;100.00;102467.00;5011818;28;20030;-94
2023/09/30 01:33:22;;;;;;;16.98;8.07;;;;;;;9.77;100.00;102455.47;5013351;28;20392;-94
2023/09/30 01:35:47;;;;;;;21.23;8.32;;;;;;;9.73;100.00;102453.44;5011845;28;20052;-94
2023/09/30 01:38:13;;;;;;;18.43;8.20;;;;;;;9.73;100.00;102461.47;5011105;28;20381;-94
2023/09/30 01:40:38;;;;;;;19.77;8.83;;;;;;;9.70;100.00;102452.81;5012322;28;20018;-94
2023/09/30 01:43:04;;;;;;;16.83;8.23;;;;;;;9.73;100.00;102456.13;5010715;28;20050;-93
2023/09/30 01:45:29;;;;;;;14.88;8.05;;;;;;;9.67;100.00;102447.09;5011057;28;20027;-93
2023/09/30 01:47:54;;;;;;;15.77;7.87;;;;;;;9.64;100.00;102439.47;5011369;28;20038;-92
2023/09/30 01:50:20;;;;;;;17.20;8.73;;;;;;;9.61;100.00;102427.31;5009122;28;20168;-94
2023/09/30 01:52:47;;;;;;;18.47;8.63;;;;;;;9.60;100.00;102427.53;5010519;28;20335;-94
2023/09/30 01:55:12;;;;;;;18.38;8.20;;;;;;;9.59;100.00;102428.56;5011502;28;20061;-94
2023/09/30 01:57:38;;;;;;;20.70;8.57;;;;;;;9.49;100.00;102427.19;5007793;28;20041;-93
2023/09/30 02:00:04;;;;;;;14.50;7.70;;;;;;;9.47;100.00;102434.59;5011421;28;20041;-94
2023/09/30 02:02:30;;;;;;;19.48;8.20;;;;;;;9.42;100.00;102423.69;5010816;28;20021;-93
2023/09/30 02:04:56;;;;;;;21.42;7.97;;;;;;;9.43;100.00;102428.00;5011771;28;20420;-93
2023/09/30 02:07:22;;;;;;;18.38;8.75;;;;;;;9.47;100.00;102434.59;5011133;28;20061;-94
2023/09/30 02:09:48;;;;;;;16.53;8.43;;;;;;;9.47;100.00;102428.41;5010829;28;20061;-93
2023/09/30 02:12:14;;;;;;;18.17;8.32;;;;;;;9.47;100.00;102439.94;5005086;28;20026;-93
2023/09/30 02:14:39;;;;;;;23.70;9.13;;;;;;;9.48;100.00;102441.59;4996400;28;20029;-94
2023/09/30 02:17:05;;;;;;;22.90;9.23;;;;;;;9.51;100.00;102445.69;5011953;28;20030;-94
2023/09/30 02:19:33;;;;;;;18.50;8.95;;;;;;;9.51;100.00;102457.19;5012220;28;20022;-93
2023/09/30 02:21:59;;;;;;;14.43;8.73;;;;;;;9.44;100.00;102444.88;5014522;28;20076;-93
2023/09/30 02:24:24;;;;;;;19.37;9.13;;;;;;;9.47;100.00;102456.00;5011539;28;20289;-93
2023/09/30 02:26:50;;;;;;;16.92;8.52;;;;;;;9.45;100.00;102451.88;5012086;28;20026;-93
2023/09/30 02:29:15;;;;;;;21.33;9.70;;;;;;;9.44;100.00;102445.72;5011846;28;20034;-93
2023/09/30 02:31:41;;;;;;;17.93;8.67;;;;;;;9.40;100.00;102436.44;5010654;28;20654;-92
2023/09/30 02:34:06;;;;;;;21.20;9.10;;;;;;;9.39;100.00;102430.28;5012698;28;20052;-93
2023/09/30 02:36:33;;;;;;;17.48;9.68;;;;;;;9.42;100.00;102439.75;5009603;28;20041;-93
2023/09/30 02:39:00;;;;;;;22.73;8.80;;;;;;;9.34;100.00;102434.59;4997903;28;20034;-93
2023/09/30 02:41:26;;;;;;;21.40;9.82;;;;;;;9.33;100.00;102443.66;5001359;28;20037;-93
2023/09/30 02:43:51;;;;;;;17.40;8.93;;;;;;;9.34;100.00;102450.66;5011743;28;20041;-93
2023/09/30 02:46:21;;;;;;;18.60;9.87;;;;;;;9.18;100.00;102434.03;5024512;22;20031;-92
2023/09/30 02:48:46;;;;;;;21.90;9.15;;;;;;;9.24;100.00;102435.88;5011140;28;20034;-93
2023/09/30 02:51:11;;;;;;;21.97;9.87;;;;;;;9.29;100.00;102432.56;5028038;28;20029;-94
2023/09/30 02:53:37;;;;;;;23.40;9.93;;;;;;;9.32;100.00;102437.50;5033876;28;20021;-93
2023/09/30 02:56:04;;;;;;;23.25;10.35;;;;;;;9.33;100.00;102436.47;5050243;28;20037;-93
2023/09/30 02:58:29;;;;;;;24.98;10.90;;;;;;;9.33;100.00;102432.97;5042359;28;20029;-94
2023/09/30 03:00:54;;;;;;;20.83;10.23;;;;;;;9.34;100.00;102431.94;5045959;28;20028;-93
2023/09/30 03:03:20;;;;;;;21.17;10.80;;;;;;;9.29;100.00;102431.75;5049029;28;20053;-93
2023/09/30 03:05:45;;;;;;;20.63;10.82;;;;;;;9.22;100.00;102432.59;5041163;28;20037;-94
2023/09/30 03:08:10;;;;;;;24.33;12.80;;;;;;;9.19;100.00;102438.34;5044177;28;20026;-93
2023/09/30 03:10:40;;;;;;;23.23;12.07;;;;;;;9.21;100.00;102428.28;5044746;28;20022;-94
2023/09/30 03:13:06;;;;;;;34.08;16.48;;;;;;;9.27;100.00;102439.16;5034174;28;20029;-94
2023/09/30 03:15:32;;;;;;;34.97;18.35;;;;;;;9.27;100.00;102439.97;5043522;28;20028;-94
2023/09/30 03:17:59;;;;;;;40.97;19.73;;;;;;;9.27;100.00;102434.63;5042060;28;20029;-93
2023/09/30 03:20:25;;;;;;;38.28;21.77;;;;;;;9.38;100.00;102449.22;5046561;28;20522;-94
2023/09/30 03:22:51;;;;;;;43.10;22.07;;;;;;;9.50;100.00;102446.72;5044082;28;20013;-93
2023/09/30 03:27:52;;;;;;;35.92;17.23;;;;;;;9.54;100.00;102405.13;5378253;22;20057;-93
2023/09/30 03:30:19;;;;;;;31.93;15.80;;;;;;;9.61;100.00;102423.84;5020093;28;20026;-93
2023/09/30 03:32:45;;;;;;;33.10;14.55;;;;;;;9.61;100.00;102423.84;5017874;28;20045;-93
2023/09/30 03:35:16;;;;;;;28.90;14.02;;;;;;;9.56;100.00;102411.09;5017313;28;20022;-93
2023/09/30 03:37:42;;;;;;;36.40;14.60;;;;;;;9.67;100.00;102418.44;5015861;28;20054;-92
2023/09/30 03:40:47;;;;;;;33.87;12.73;;;;;;;9.69;100.00;102427.09;5019704;28;20123;-91
2023/09/30 03:42:59;;;;;;;31.43;14.03;;;;;;;9.74;100.00;102428.31;5007091;28;20347;-93
2023/09/30 03:45:24;;;;;;;31.80;13.43;;;;;;;9.70;100.00;102426.06;5017850;28;20030;-94
2023/09/30 03:47:51;;;;;;;29.00;12.97;;;;;;;9.67;100.00;102431.03;5014444;28;20029;-94
2023/09/30 03:50:17;;;;;;;28.63;12.93;;;;;;;9.64;100.00;102429.56;5015348;28;20025;-94
2023/09/30 03:52:47;;;;;;;28.70;12.73;;;;;;;9.63;100.00;102429.78;5014935;28;20033;-92
2023/09/30 03:55:15;;;;;;;24.83;11.93;;;;;;;9.57;100.00;102427.97;4995335;28;20027;-93
2023/09/30 04:05:29;;;;;;;27.83;12.57;;;;;;;9.64;100.00;102423.41;5028262;26;20042;-94
2023/09/30 04:07:56;;;;;;;27.87;12.87;;;;;;;9.61;100.00;102415.81;5034471;28;20629;-93
2023/09/30 04:10:22;;;;;;;25.95;12.85;;;;;;;9.65;100.00;102435.75;5026368;28;20081;-93
2023/09/30 04:12:48;;;;;;;33.78;12.95;;;;;;;9.66;100.00;102440.09;5032516;28;20091;-92
2023/09/30 04:15:13;;;;;;;29.00;12.73;;;;;;;9.66;100.00;102426.69;5033804;28;20112;-94
2023/09/30 04:17:39;;;;;;;28.40;12.23;;;;;;;9.62;100.00;102433.50;5031555;28;20033;-93
2023/09/30 04:20:09;;;;;;;28.00;12.00;;;;;;;9.53;100.00;102433.72;5025124;28;20032;-94
2023/09/30 04:22:35;;;;;;;29.15;12.35;;;;;;;9.46;100.00;102424.09;5032159;28;20096;-94
2023/09/30 04:25:01;;;;;;;27.20;12.63;;;;;;;9.49;100.00;102421.81;5034361;28;20100;-93
2023/09/30 04:27:27;;;;;;;31.17;12.63;;;;;;;9.45;100.00;102417.91;5034059;28;20025;-95
2023/09/30 04:29:53;;;;;;;28.53;13.03;;;;;;;9.40;100.00;102413.19;5033235;28;20062;-93
2023/09/30 04:32:19;;;;;;;28.80;11.93;;;;;;;9.38;100.00;102430.50;5033462;28;20079;-94
2023/09/30 04:34:46;;;;;;;34.67;12.90;;;;;;;9.30;100.00;102426.19;5032509;28;20119;-93
2023/09/30 04:37:13;;;;;;;26.40;12.60;;;;;;;9.34;100.00;102432.78;5024312;28;20025;-94
2023/09/30 04:39:39;;;;;;;27.40;12.15;;;;;;;9.32;100.00;102425.97;5032843;28;20432;-92
2023/09/30 04:42:04;;;;;;;27.50;12.63;;;;;;;9.24;100.00;102430.53;5034117;28;20021;-94
2023/09/30 04:44:30;;;;;;;33.50;12.30;;;;;;;9.19;100.00;102426.84;5034294;28;20052;-94
2023/09/30 04:46:56;;;;;;;32.87;12.43;;;;;;;9.21;100.00;102446.19;5033228;28;20029;-93
2023/09/30 04:49:23;;;;;;;31.00;12.55;;;;;;;9.18;100.00;102442.06;5032631;28;20017;-94
2023/09/30 04:51:49;;;;;;;28.88;12.38;;;;;;;9.20;100.00;102450.69;5034664;28;20032;-96
2023/09/30 04:54:14;;;;;;;31.48;13.52;;;;;;;9.21;100.00;102447.00;5017805;28;20604;-96
2023/09/30 04:56:41;;;;;;;29.90;11.97;;;;;;;9.17;100.00;102443.09;5035317;28;20037;-96
2023/09/30 04:59:06;;;;;;;29.20;12.35;;;;;;;9.12;100.00;102445.59;5034271;28;20128;-95
2023/09/30 05:01:32;;;;;;;28.50;11.90;;;;;;;9.07;100.00;102456.88;5034182;28;20068;-96
2023/09/30 05:11:43;;;;;;;28.42;11.95;;;;;;;8.85;100.00;102458.16;5728424;22;20046;-89
2023/09/30 05:14:08;;;;;;;27.77;11.75;;;;;;;8.85;100.00;102466.97;5030846;28;20026;-90
2023/09/30 05:16:33;;;;;;;27.63;11.57;;;;;;;8.76;100.00;102461.00;5031930;28;20419;-89
2023/09/30 05:18:59;;;;;;;27.67;11.43;;;;;;;8.82;100.00;102464.72;5031409;28;20033;-89
2023/09/30 05:21:24;;;;;;;27.77;11.70;;;;;;;8.79;100.00;102460.59;5039778;28;20013;-94
2023/09/30 05:23:50;;;;;;;29.57;12.40;;;;;;;8.79;100.00;102459.78;5035173;28;20095;-93
2023/09/30 05:26:16;;;;;;;24.42;11.25;;;;;;;8.79;100.00;102468.63;5032235;28;20029;-91
2023/09/30 05:28:42;;;;;;;27.48;11.35;;;;;;;8.77;100.00;102461.81;5033011;28;20068;-91
2023/09/30 05:31:07;;;;;;;26.97;13.07;;;;;;;8.77;100.00;102465.34;5034409;28;20033;-91
2023/09/30 05:33:33;;;;;;;26.27;11.70;;;;;;;8.78;100.00;102466.97;5037199;28;20017;-91
2023/09/30 05:35:59;;;;;;;31.80;13.80;;;;;;;8.75;100.00;102469.25;5029801;28;20074;-90
2023/09/30 05:38:26;;;;;;;33.85;15.15;;;;;;;8.78;100.00;102466.13;5030816;28;20033;-89
2023/09/30 05:40:51;;;;;;;37.45;16.48;;;;;;;8.74;100.00;102459.59;5031957;28;20040;-90
2023/09/30 05:43:17;;;;;;;44.27;17.70;;;;;;;8.74;100.00;102480.97;5029899;28;20017;-89
2023/09/30 05:45:48;;;;;;;35.17;16.80;;;;;;;8.71;100.00;102476.03;5030365;28;20471;-92
2023/09/30 05:48:15;;;;;;;38.22;17.17;;;;;;;8.73;100.00;102473.97;5028836;28;20025;-88
2023/09/30 05:50:40;;;;;;;42.38;19.35;;;;;;;8.83;100.00;102470.91;5030492;28;20085;-90
2023/09/30 05:53:05;;;;;;;55.77;24.13;;;;;;;8.89;100.00;102476.25;5028731;28;20104;-89
2023/09/30 05:55:30;;;;;;;61.27;27.50;;;;;;;8.98;100.00;102476.00;5029518;28;20079;-89
2023/09/30 05:57:56;;;;;;;72.20;30.70;;;;;;;9.11;100.00;102481.38;5029348;28;20304;-89
2023/09/30 06:00:30;;;;;;;67.10;30.53;;;;;;;9.17;100.00;102475.19;5028784;28;20048;-89
2023/09/30 06:02:58;;;;;;;72.53;30.27;;;;;;;9.24;100.00;102483.19;5031914;28;20155;-90
2023/09/30 06:05:25;;;;;;;63.42;30.42;;;;;;;9.35;100.00;102489.75;5026898;28;20069;-89
2023/09/30 06:07:51;;;;;;;72.80;32.00;;;;;;;9.36;100.00;102480.69;5030560;28;20642;-89
2023/09/30 06:10:20;;;;;;;68.63;29.77;;;;;;;9.41;100.00;102486.25;5027184;28;20105;-89
2023/09/30 06:12:54;;;;;;;69.07;29.00;;;;;;;9.46;100.00;102491.81;5009709;28;20452;-89
2023/09/30 06:15:21;;;;;;;73.47;33.03;;;;;;;9.49;100.00;102487.88;5022926;28;20032;-89
2023/09/30 06:17:50;;;;;;;67.05;30.77;;;;;;;9.48;100.00;102483.56;5031418;28;20033;-90
2023/09/30 06:20:18;;;;;;;70.78;31.65;;;;;;;9.51;100.00;102486.63;5029337;28;20079;-90
2023/09/30 06:22:49;;;;;;;65.70;30.60;;;;;;;9.52;100.00;102474.91;5032959;28;20463;-90
2023/09/30 06:25:18;;;;;;;73.43;30.77;;;;;;;9.54;100.00;102472.03;5048152;28;20033;-90
2023/09/30 06:27:46;;;;;;;72.15;28.73;;;;;;;9.53;100.00;102465.84;5040142;28;20041;-90
2023/09/30 06:30:13;;;;;;;64.33;26.50;;;;;;;9.63;100.00;102476.09;5048768;28;20025;-89
2023/09/30 06:32:39;;;;;;;58.60;25.40;;;;;;;9.66;100.00;102482.91;5046331;28;20120;-89
2023/09/30 06:35:06;;;;;;;59.58;24.60;;;;;;;9.74;100.00;102477.31;5035052;28;20029;-90
2023/09/30 06:37:31;;;;;;;58.85;23.85;;;;;;;9.76;100.00;102485.16;5031424;28;20404;-89
2023/09/30 06:39:57;;;;;;;56.65;23.48;;;;;;;9.87;100.00;102487.16;5034251;28;20027;-90
2023/09/30 06:42:22;;;;;;;56.37;22.27;;;;;;;9.88;100.00;102486.13;5032639;28;20472;-90
2023/09/30 06:44:47;;;;;;;55.10;21.00;;;;;;;9.93;100.00;102488.16;5033144;28;20144;-89
2023/09/30 06:47:13;;;;;;;49.17;19.40;;;;;;;9.91;100.00;102474.97;5031837;28;20048;-89
2023/09/30 06:49:39;;;;;;;50.63;17.60;;;;;;;10.00;100.00;102494.31;5032847;28;20033;-90
2023/09/30 06:52:05;;;;;;;47.60;17.93;;;;;;;10.01;100.00;102487.91;5032571;28;20296;-89
2023/09/30 06:54:33;;;;;;;52.20;17.13;;;;;;;10.09;100.00;102501.06;5028351;28;20593;-87
2023/09/30 06:56:58;;;;;;;52.80;17.85;;;;;;;10.15;100.00;102513.59;5031560;28;20107;-87
2023/09/30 06:59:25;;;;;;;53.07;17.57;;;;;;;10.28;100.00;102504.69;5027387;28;20111;-85
2023/09/30 07:01:50;;;;;;;44.78;15.85;;;;;;;10.32;100.00;102521.13;5032276;28;20026;-87
2023/09/30 07:04:16;;;;;;;43.22;15.50;;;;;;;10.35;100.00;102536.78;5030498;28;20082;-85
2023/09/30 07:06:41;;;;;;;50.33;16.10;;;;;;;10.37;100.00;102539.25;5021133;28;20108;-87
2023/09/30 07:09:07;;;;;;;44.50;15.97;;;;;;;10.38;100.00;102546.25;5031551;28;20692;-85
2023/09/30 07:11:33;;;;;;;46.90;15.38;;;;;;;10.43;100.00;102544.59;5032633;28;20361;-86
2023/09/30 07:13:58;;;;;;;44.57;15.13;;;;;;;10.48;100.00;102551.19;5031771;28;20033;-85
2023/09/30 07:19:08;;;;;;;38.77;13.60;;;;;;;10.51;100.00;102518.59;5139150;22;20054;-84
2023/09/30 07:21:33;;;;;;;45.80;16.07;;;;;;;10.69;100.00;102536.59;5023674;28;20308;-83
2023/09/30 07:23:58;;;;;;;51.63;15.60;;;;;;;10.73;100.00;102535.97;5020945;28;20037;-84
2023/09/30 07:26:25;;;;;;;47.07;15.83;;;;;;;10.82;100.00;102541.06;5025623;28;20034;-82
2023/09/30 07:28:50;;;;;;;49.95;15.82;;;;;;;10.90;100.00;102559.59;5015024;28;20473;-84
2023/09/30 07:31:16;;;;;;;43.60;15.00;;;;;;;10.88;100.00;102567.84;4999482;28;20036;-82
2023/09/30 07:33:41;;;;;;;50.67;15.93;;;;;;;10.99;100.00;102576.25;4993524;28;20086;-82
2023/09/30 07:36:07;;;;;;;54.13;16.20;;;;;;;11.08;100.00;102585.66;5010060;28;20389;-81
2023/09/30 07:38:32;;;;;;;52.72;16.45;;;;;;;11.23;100.00;102587.22;5007451;28;20099;-82
2023/09/30 07:40:59;;;;;;;53.23;16.83;;;;;;;11.45;100.00;102603.72;5013857;28;20022;-83
2023/09/30 07:43:25;;;;;;;60.65;18.20;;;;;;;11.76;100.00;102602.00;5011790;28;20040;-82
2023/09/30 07:45:50;;;;;;;61.73;19.10;;;;;;;12.05;100.00;102600.47;5012622;28;20424;-82
2023/09/30 07:48:15;;;;;;;61.17;20.20;;;;;;;12.33;100.00;102604.47;5001996;28;20081;-83
2023/09/30 07:50:42;;;;;;;59.77;20.10;;;;;;;12.52;100.00;102591.84;5012676;28;20285;-82
2023/09/30 07:53:08;;;;;;;71.47;21.58;;;;;;;12.67;100.00;102591.44;5010662;28;20048;-81
2023/09/30 07:55:33;;;;;;;59.07;19.87;;;;;;;12.74;100.00;102577.88;5011397;28;20088;-81
2023/09/30 07:58:00;;;;;;;71.97;21.97;;;;;;;12.86;100.00;102580.59;5011606;28;20033;-86
2023/09/30 08:00:25;;;;;;;63.37;19.73;;;;;;;12.86;100.00;102576.03;5010445;28;20388;-84
2023/09/30 08:02:51;;;;;;;48.80;17.00;;;;;;;12.94;100.00;102574.06;5006683;28;20477;-85
2023/09/30 08:05:16;;;;;;;50.33;17.63;;;;;;;12.96;100.00;102578.16;5010911;28;20540;-84
2023/09/30 08:07:42;;;;;;;49.17;16.58;;;;;;;12.99;100.00;102584.94;4992006;28;20030;-84
2023/09/30 08:10:13;;;;;;;45.37;14.53;;;;;;;13.03;100.00;102581.56;5004726;28;20536;-83
2023/09/30 08:12:38;;;;;;;43.65;14.48;;;;;;;13.03;100.00;102576.19;5027108;28;20056;-83
2023/09/30 08:15:05;;;;;;;48.13;15.73;;;;;;;13.12;100.00;102574.00;5022285;28;20473;-86
2023/09/30 08:17:31;;;;;;;37.30;12.52;;;;;;;13.11;100.00;102574.19;5019719;28;20030;-85
2023/09/30 08:19:57;;;;;;;38.22;12.43;;;;;;;13.17;100.00;102571.41;5015026;28;20038;-86
2023/09/30 08:22:27;;;;;;;33.17;12.27;;;;;;;13.24;100.00;102575.84;5013363;28;20061;-87
2023/09/30 08:24:53;;;;;;;34.33;12.20;;;;;;;13.26;100.00;102565.69;5017014;28;20034;-86
2023/09/30 08:35:06;;;;;;;30.67;12.05;;;;;;;13.51;100.00;102565.47;5009365;28;20049;-87
2023/09/30 08:37:31;;;;;;;28.73;11.57;;;;;;;13.53;100.00;102549.06;5000321;28;20398;-86
2023/09/30 08:39:57;;;;;;;32.05;10.32;;;;;;;13.67;100.00;102569.34;4974488;28;20037;-87
2023/09/30 08:42:24;;;;;;;30.47;11.23;;;;;;;13.78;100.00;102567.69;4991891;28;20026;-89
2023/09/30 08:44:53;;;;;;;35.60;11.88;;;;;;;13.88;100.00;102564.34;5000648;28;20030;-88
2023/09/30 08:47:20;;;;;;;31.77;10.80;;;;;;;13.95;100.00;102553.47;4993902;28;20014;-89
2023/09/30 08:49:47;;;;;;;24.30;10.93;;;;;;;14.01;100.00;102555.19;5009210;28;20041;-88
2023/09/30 08:52:14;;;;;;;24.73;9.70;;;;;;;14.14;100.00;102563.03;5009285;28;20019;-88
2023/09/30 08:54:40;;;;;;;32.43;10.57;;;;;;;14.20;100.00;102547.75;5004849;28;20025;-89
2023/09/30 08:57:07;;;;;;;19.37;8.47;;;;;;;14.25;100.00;102561.31;5009820;28;20307;-87
2023/09/30 08:59:35;;;;;;;21.10;9.00;;;;;;;14.29;100.00;102559.78;5009765;28;20053;-87
2023/09/30 09:02:00;;;;;;;26.42;8.75;;;;;;;14.36;100.00;102565.03;4993044;28;20484;-87
2023/09/30 09:04:26;;;;;;;19.40;8.03;;;;;;;14.41;100.00;102554.34;4999221;28;20018;-87
2023/09/30 09:06:55;;;;;;;19.48;8.25;;;;;;;14.48;100.00;102557.72;5009683;28;20026;-87
2023/09/30 09:09:22;;;;;;;24.35;8.90;;;;;;;14.59;100.00;102569.53;5008110;28;20500;-87
2023/09/30 09:11:47;;;;;;;23.13;8.80;;;;;;;14.63;100.00;102578.75;4991035;28;20030;-91
2023/09/30 09:14:14;;;;;;;20.00;7.87;;;;;;;14.71;100.00;102582.97;5008724;28;20030;-89
2023/09/30 09:16:55;;;;;;;20.98;8.00;;;;;;;14.79;100.00;102587.16;5012126;28;20030;-90
2023/09/30 09:19:21;;;;;;;16.60;7.30;;;;;;;14.83;100.00;102599.09;4994684;28;20033;-94
2023/09/30 09:21:58;;;;;;;17.10;7.07;;;;;;;14.92;100.00;102603.03;4993087;28;20493;-84
2023/09/30 09:24:28;;;;;;;17.17;7.65;;;;;;;14.91;100.00;102595.16;5007933;28;20333;-82
2023/09/30 09:27:04;;;;;;;22.38;7.63;;;;;;;14.90;100.00;102597.06;5000949;28;20117;-82
2023/09/30 09:29:29;;;;;;;18.00;8.05;;;;;;;15.01;100.00;102610.72;5006402;28;20040;-83
2023/09/30 09:32:07;;;;;;;29.17;7.83;;;;;;;15.06;100.00;102618.91;5008951;28;20037;-82
2023/09/30 09:34:32;;;;;;;19.58;6.78;;;;;;;15.13;100.00;102619.59;5009103;28;20121;-82
2023/09/30 09:36:58;;;;;;;13.17;6.23;;;;;;;15.16;100.00;102627.16;5009342;28;20164;-83
2023/09/30 09:39:32;;;;;;;19.50;6.27;;;;;;;15.26;100.00;102631.91;5011643;28;20092;-83
2023/09/30 09:41:57;;;;;;;20.92;6.65;;;;;;;15.34;100.00;102622.63;4992323;28;20026;-83
2023/09/30 09:44:27;;;;;;;18.70;6.77;;;;;;;15.38;100.00;102634.53;4991133;28;20026;-83
2023/09/30 09:46:52;;;;;;;13.20;6.07;;;;;;;15.38;100.00;102635.38;5008984;28;20022;-83
2023/09/30 09:49:19;;;;;;;17.92;6.20;;;;;;;15.48;100.00;102628.47;5010379;28;20737;-83
2023/09/30 09:51:46;;;;;;;18.92;6.45;;;;;;;15.55;100.00;102621.84;4987075;28;20026;-83
2023/09/30 09:54:13;;;;;;;18.77;6.23;;;;;;;15.69;100.00;102640.44;5010502;28;20033;-84
2023/09/30 09:56:39;;;;;;;16.00;5.72;;;;;;;15.75;100.00;102634.84;5009271;28;20117;-84
2023/09/30 09:59:06;;;;;;;15.38;5.45;;;;;;;15.79;100.00;102640.56;5010538;28;20156;-84
2023/09/30 10:01:34;;;;;;;15.23;5.18;;;;;;;15.85;100.00;102644.16;5006847;28;20025;-84
2023/09/30 10:04:00;;;;;;;16.35;5.78;;;;;;;15.96;100.00;102634.31;5009889;28;20099;-84
2023/09/30 10:06:26;;;;;;;16.50;5.30;;;;;;;16.06;100.00;102626.38;5009384;28;20473;-84
2023/09/30 10:08:53;;;;;;;12.43;5.57;;;;;;;16.13;100.00;102640.50;4992649;28;20160;-84
2023/09/30 10:11:19;;;;;;;16.08;5.07;;;;;;;16.18;100.00;102645.97;4990850;28;20029;-84
2023/09/30 10:14:03;;;;;;;13.65;5.22;;;;;;;16.22;100.00;102653.59;5009697;28;20033;-84
2023/09/30 10:16:49;;;;;;;13.02;5.07;;;;;;;16.31;100.00;102652.06;5009632;28;20461;-84
2023/09/30 10:19:15;;;;;;;11.02;4.55;;;;;;;16.35;100.00;102651.31;5009764;28;20128;-84
2023/09/30 10:22:19;;;;;;;9.60;5.00;;;;;;;16.44;100.00;102657.09;5008560;28;20382;-84
2023/09/30 10:24:53;;;;;;;12.90;5.03;;;;;;;16.41;100.00;102665.72;5010986;28;20300;-84
2023/09/30 10:27:22;;;;;;;12.38;5.15;;;;;;;16.36;100.00;102662.97;5010451;28;20022;-84
2023/09/30 10:29:49;;;;;;;14.18;5.43;;;;;;;16.29;100.00;102646.09;4988849;28;20041;-85
2023/09/30 10:32:14;;;;;;;11.63;4.95;;;;;;;16.24;100.00;102636.03;4987043;28;20614;-87
2023/09/30 10:34:48;;;;;;;12.80;4.73;;;;;;;16.42;100.00;102634.91;5010866;28;20022;-86
2023/09/30 10:37:24;;;;;;;11.88;5.40;;;;;;;16.72;100.00;102627.34;5006134;28;20169;-85
2023/09/30 10:39:54;;;;;;;11.25;5.10;;;;;;;17.08;100.00;102628.53;4990864;28;20034;-85
2023/09/30 10:42:49;;;;;;;12.43;4.88;;;;;;;17.64;100.00;102613.75;5009424;28;20670;-85
2023/09/30 10:45:40;;;;;;;12.87;5.73;;;;;;;18.09;100.00;102613.41;5025201;28;20036;-85
2023/09/30 10:48:24;;;;;;;12.57;5.87;;;;;;;18.45;100.00;102613.53;5008629;28;20316;-85
2023/09/30 10:50:51;;;;;;;12.27;5.32;;;;;;;18.79;100.00;102607.63;5009505;28;20036;-84
2023/09/30 10:53:18;;;;;;;12.02;5.07;;;;;;;19.04;100.00;102612.28;5007070;28;20042;-84
2023/09/30 10:55:45;;;;;;;14.00;4.90;;;;;;;19.19;100.00;102603.28;4998235;28;20682;-85
2023/09/30 10:58:11;;;;;;;14.68;4.95;;;;;;;19.19;100.00;102607.94;4991335;28;20035;-84
2023/09/30 11:00:38;;;;;;;10.47;4.57;;;;;;;19.20;100.00;102602.22;5005943;28;20040;-84
2023/09/30 11:03:05;;;;;;;13.45;4.45;;;;;;;19.20;100.00;102590.53;5008522;28;20116;-85
2023/09/30 11:05:34;;;;;;;11.98;4.80;;;;;;;19.28;100.00;102591.88;5004224;28;20037;-84
2023/09/30 11:08:03;;;;;;;9.27;4.38;;;;;;;19.38;100.00;102594.56;5009352;28;20204;-84
2023/09/30 11:10:28;;;;;;;15.03;4.40;;;;;;;19.55;100.00;102582.56;5008189;28;20079;-84
2023/09/30 11:12:57;;;;;;;27.57;4.63;;;;;;;19.63;100.00;102590.97;5003516;28;20705;-82
2023/09/30 11:15:23;;;;;;;11.25;4.47;;;;;;;19.59;100.00;102599.97;5005539;28;20026;-83
2023/09/30 11:17:50;;;;;;;11.67;4.70;;;;;;;19.42;97.68;102592.13;5006702;28;20037;-84
2023/09/30 11:20:18;;;;;;;11.70;4.70;;;;;;;19.31;100.00;102592.13;5013401;28;20304;-82
2023/09/30 11:22:45;;;;;;;9.85;4.07;;;;;;;19.22;100.00;102591.09;5009425;28;20033;-83
2023/09/30 11:25:18;;;;;;;10.00;4.45;;;;;;;19.28;100.00;102595.41;5010438;28;20068;-83
2023/09/30 11:27:43;;;;;;;9.48;4.10;;;;;;;19.47;100.00;102592.09;5007571;28;20945;-84
2023/09/30 11:30:10;;;;;;;14.37;3.87;;;;;;;19.58;95.01;102582.84;5003081;28;20033;-84
2023/09/30 11:32:35;;;;;;;7.45;3.17;;;;;;;19.70;89.97;102585.25;5011848;28;20030;-84
2023/09/30 11:35:00;;;;;;;7.87;3.00;;;;;;;19.92;91.45;102587.66;5012310;28;20080;-84
2023/09/30 11:37:33;;;;;;;8.63;3.33;;;;;;;20.17;88.40;102587.78;5007494;28;20545;-84